createdAt,value
2023-01-10T00:00:03.116Z,124.78
2023-01-10T00:15:01.593Z,124.78
2023-01-10T00:30:02.023Z,124.78
2023-01-10T00:45:02.071Z,124.78
2023-01-10T01:00:01.356Z,124.78
2023-01-10T01:15:02.139Z,124.78
2023-01-10T01:30:01.578Z,124.78
2023-01-10T01:45:02.057Z,124.78
2023-01-10T02:00:02.520Z,124.78
2023-01-10T02:15:01.442Z,124.78
2023-01-10T02:30:01.702Z,124.78
2023-01-10T02:45:01.952Z,124.78
2023-01-10T03:00:02.391Z,124.78
2023-01-10T03:15:01.506Z,124.78
2023-01-10T03:30:01.712Z,124.78
2023-01-10T03:45:01.988Z,124.78
2023-01-10T04:00:02.326Z,124.78
2023-01-10T04:15:01.619Z,124.78
2023-01-10T04:30:02.438Z,124.78
2023-01-10T04:45:02.191Z,124.78
2023-01-10T05:00:01.355Z,124.78
2023-01-10T05:15:01.377Z,124.78
2023-01-10T05:30:01.658Z,124.78
2023-01-10T05:45:01.951Z,124.78
2023-01-10T06:00:04.903Z,124.78
2023-01-10T06:15:01.457Z,124.78
2023-01-10T06:30:01.678Z,124.78
2023-01-10T06:45:01.892Z,124.78
2023-01-10T07:00:02.214Z,124.78
2023-01-10T07:15:02.376Z,124.78
2023-01-10T07:30:02.855Z,124.78
2023-01-10T07:45:01.375Z,124.78
2023-01-10T08:00:01.772Z,124.78
2023-01-10T08:15:02.232Z,124.78
2023-01-10T08:30:02.611Z,124.78
2023-01-10T08:45:03.092Z,124.78
2023-01-10T09:00:01.498Z,124.78
2023-01-10T09:15:01.973Z,124.78
2023-01-10T09:30:02.231Z,124.78
2023-01-10T09:45:01.450Z,124.78
2023-01-10T10:00:01.709Z,124.78
2023-01-10T10:15:02.817Z,124.78
2023-01-10T10:30:02.378Z,124.78
2023-01-10T10:45:01.828Z,124.78
2023-01-10T11:00:01.829Z,124.78
2023-01-10T11:15:02.357Z,124.78
2023-01-10T11:30:02.904Z,124.78
2023-01-10T11:45:01.345Z,124.78
2023-01-10T12:00:01.592Z,124.78
2023-01-10T12:15:02.259Z,124.78
2023-01-10T12:30:01.647Z,124.78
2023-01-10T12:45:01.657Z,124.78
2023-01-10T13:00:02.669Z,124.78
2023-01-10T13:15:01.972Z,124.78
2023-01-10T13:30:02.445Z,124.78
2023-01-10T13:45:02.547Z,124.78
2023-01-10T14:00:02.448Z,62.98
2023-01-10T14:15:01.720Z,81.59
2023-01-10T14:30:02.133Z,53.83
2023-01-10T14:45:02.870Z,80.5
2023-01-10T15:00:01.996Z,99.48
2023-01-10T15:15:02.453Z,109.4
2023-01-10T15:30:03.045Z,108.71
2023-01-10T15:45:02.050Z,115.75
2023-01-10T16:00:01.658Z,116.24
2023-01-10T16:15:02.200Z,116.24
2023-01-10T16:30:02.411Z,116.24
2023-01-10T16:45:02.232Z,116.24
2023-01-10T17:00:02.549Z,116.24
2023-01-10T17:15:03.617Z,116.24
2023-01-10T17:30:01.443Z,116.24
2023-01-10T17:45:01.845Z,116.24
2023-01-10T18:00:02.615Z,116.24
2023-01-10T18:15:03.222Z,116.24
2023-01-10T18:30:03.583Z,116.24
2023-01-10T18:45:01.903Z,116.24
2023-01-10T19:00:02.316Z,116.24
2023-01-10T19:15:02.092Z,122.27
2023-01-10T19:30:01.755Z,122.27
2023-01-10T19:45:02.260Z,122.27
2023-01-10T20:00:02.822Z,122.27
2023-01-10T20:15:01.878Z,122.27
2023-01-10T20:30:01.996Z,122.27
2023-01-10T20:45:02.244Z,122.27
2023-01-10T21:00:01.534Z,122.27
2023-01-10T21:15:01.538Z,122.27
2023-01-10T21:30:01.876Z,122.27
2023-01-10T21:45:02.195Z,122.27
2023-01-10T22:00:02.781Z,122.27
2023-01-10T22:15:01.558Z,122.27
2023-01-10T22:30:01.843Z,122.27
2023-01-10T22:45:02.026Z,122.27
2023-01-10T23:00:02.648Z,122.27
2023-01-10T23:15:01.815Z,122.27
2023-01-10T23:30:02.086Z,122.27
2023-01-10T23:45:02.284Z,122.27
